Time;durP1;ratioP1;P1;durP2;ratioP2;P2;SDS_P1;SDS_P2;PMS_P1;PMS_P2;Temp;Humidity;BMP_temperature;BMP_pressure;BME280_temperature;BME280_humidity;BME280_pressure;Samples;Min_cycle;Max_cycle;Signal;HPM_P1;HPM_P2
2022/06/25 00:01:42;;;;;;;8.25;3.90;;;;;;;18.13;75.32;94475.22;5091244;28;20255;-77
2022/06/25 00:05:27;;;;;;;10.48;3.75;;;;;;;18.18;76.12;94477.63;5090998;28;20279;-77
2022/06/25 00:06:55;;;;;;;10.10;4.13;;;;;;;18.18;76.49;94467.41;5093278;28;20202;-77
2022/06/25 00:09:22;;;;;;;7.65;3.90;;;;;;;18.13;77.21;94465.03;5095005;28;20206;-77
2022/06/25 00:14:36;;;;;;;4.45;3.50;;;;;;;18.06;77.92;94454.00;5094461;28;20189;-77
2022/06/25 00:17:04;;;;;;;6.35;4.00;;;;;;;17.92;77.42;94440.19;5094972;28;20631;-77
2022/06/25 00:19:30;;;;;;;4.20;3.22;;;;;;;17.89;76.08;94449.19;5095287;28;20226;-77
2022/06/25 00:21:57;;;;;;;4.10;3.55;;;;;;;17.73;76.57;94442.00;5094993;28;20295;-77
2022/06/25 00:24:24;;;;;;;3.85;3.03;;;;;;;17.67;74.52;94448.97;5094930;28;20321;-75
2022/06/25 00:26:51;;;;;;;2.90;2.28;;;;;;;17.53;74.27;94448.78;5093918;28;20209;-76
2022/06/25 00:29:18;;;;;;;5.95;2.75;;;;;;;17.53;74.58;94448.78;5094353;28;20214;-77
2022/06/25 00:31:46;;;;;;;3.13;2.70;;;;;;;17.51;74.39;94434.69;5093915;28;20834;-76
2022/06/25 00:34:13;;;;;;;4.70;2.92;;;;;;;17.47;74.46;94444.03;5094732;28;20198;-76
2022/06/25 00:36:40;;;;;;;4.35;2.45;;;;;;;17.49;74.61;94442.50;5094175;28;20633;-76
2022/06/25 00:39:07;;;;;;;3.20;2.70;;;;;;;17.39;74.82;94448.63;5094448;28;20285;-77
2022/06/25 00:41:34;;;;;;;4.43;2.88;;;;;;;17.28;75.23;94439.53;5093624;28;20202;-77
2022/06/25 00:44:07;;;;;;;3.65;2.58;;;;;;;17.33;75.11;94431.00;5093979;28;20229;-77
2022/06/25 00:46:34;;;;;;;4.22;2.65;;;;;;;17.14;76.91;94436.63;5094205;28;20198;-77
2022/06/25 00:49:02;;;;;;;7.03;3.50;;;;;;;17.04;77.65;94432.63;5094183;28;20225;-77
2022/06/25 00:51:33;;;;;;;4.30;3.30;;;;;;;17.04;77.89;94427.94;5094408;28;20230;-77
2022/06/25 00:54:04;;;;;;;3.72;2.90;;;;;;;17.12;77.54;94422.53;5094909;28;20293;-77
2022/06/25 00:56:33;;;;;;;4.85;3.15;;;;;;;17.11;77.47;94427.22;5093969;28;20619;-77
2022/06/25 00:59:04;;;;;;;4.60;3.13;;;;;;;17.17;77.50;94430.41;5094795;28;20234;-76
2022/06/25 01:01:31;;;;;;;6.22;3.67;;;;;;;17.26;77.26;94439.13;5094503;28;20218;-77
2022/06/25 01:03:57;;;;;;;4.38;3.15;;;;;;;17.10;77.56;94444.00;5094245;28;20275;-76
2022/06/25 01:06:27;;;;;;;4.72;3.22;;;;;;;16.90;77.95;94437.91;5093857;28;20299;-76
2022/06/25 01:08:54;;;;;;;5.47;3.00;;;;;;;16.83;78.12;94433.13;5093771;28;20201;-76
2022/06/25 01:11:21;;;;;;;3.42;3.03;;;;;;;16.82;78.77;94436.22;5094186;28;20313;-77
2022/06/25 01:13:48;;;;;;;4.72;3.28;;;;;;;16.82;79.20;94441.72;5093912;28;20653;-77
2022/06/25 01:16:14;;;;;;;6.68;3.53;;;;;;;16.78;79.75;94444.41;5093437;28;20282;-75
2022/06/25 01:18:41;;;;;;;4.38;3.33;;;;;;;16.81;80.11;94449.13;5093039;28;20203;-77
2022/06/25 01:21:08;;;;;;;4.63;3.55;;;;;;;16.91;80.37;94453.19;5093764;28;20287;-77
2022/06/25 01:23:36;;;;;;;6.72;3.20;;;;;;;17.08;79.36;94436.19;5093611;28;20742;-77
2022/06/25 01:26:03;;;;;;;8.82;3.88;;;;;;;17.19;79.20;94450.78;5093661;28;20287;-77
2022/06/25 01:28:30;;;;;;;4.50;3.70;;;;;;;17.21;79.43;94450.41;5093787;28;20226;-77
2022/06/25 01:30:57;;;;;;;7.30;3.38;;;;;;;17.31;78.85;94447.00;5093857;28;20214;-77
2022/06/25 01:33:23;;;;;;;13.45;3.85;;;;;;;17.43;78.68;94438.53;5093428;28;20270;-77
2022/06/25 01:35:50;;;;;;;10.35;4.43;;;;;;;17.51;78.47;94436.63;5093369;28;20240;-77
2022/06/25 01:38:17;;;;;;;5.00;3.78;;;;;;;17.52;78.51;94430.78;5093030;28;20665;-77
2022/06/25 01:40:45;;;;;;;6.20;3.67;;;;;;;17.55;78.28;94441.00;5093147;28;20639;-77
2022/06/25 01:43:12;;;;;;;6.15;3.97;;;;;;;17.60;78.06;94437.13;5093292;28;20230;-77
2022/06/25 01:45:41;;;;;;;6.20;3.53;;;;;;;17.61;78.13;94438.72;5092970;28;20202;-77
2022/06/25 01:48:09;;;;;;;9.77;4.35;;;;;;;17.52;77.96;94436.25;5092820;28;20226;-77
2022/06/25 01:50:36;;;;;;;6.05;3.90;;;;;;;17.32;78.30;94443.09;5093135;28;20639;-77
2022/06/25 01:53:04;;;;;;;10.88;4.63;;;;;;;17.22;78.83;94452.00;5093493;28;20195;-76
2022/06/25 01:55:31;;;;;;;7.55;4.03;;;;;;;17.14;79.05;94445.63;5092680;28;20226;-77
2022/06/25 01:57:59;;;;;;;13.48;4.15;;;;;;;17.09;79.28;94454.16;5092302;28;20219;-77
2022/06/25 02:00:29;;;;;;;7.75;3.75;;;;;;;17.17;79.82;94457.78;5092108;28;20305;-77
2022/06/25 02:02:56;;;;;;;6.18;3.83;;;;;;;17.27;79.60;94452.44;5092938;28;20234;-77
2022/06/25 02:08:06;;;;;;;6.00;4.63;;;;;;;17.37;79.12;94464.66;5092634;28;20250;-76
2022/06/25 02:10:33;;;;;;;6.38;3.72;;;;;;;17.40;79.24;94461.97;5092627;28;20318;-77
2022/06/25 02:13:02;;;;;;;5.88;4.15;;;;;;;17.27;80.47;94466.13;5092657;28;20214;-77
2022/06/25 02:15:28;;;;;;;8.13;4.00;;;;;;;17.11;81.59;94464.75;5091948;28;20693;-76
2022/06/25 02:17:55;;;;;;;7.40;4.40;;;;;;;17.01;82.27;94472.47;5092167;28;20202;-77
2022/06/25 02:20:22;;;;;;;6.22;4.00;;;;;;;17.00;82.28;94459.94;5092809;28;20210;-77
2022/06/25 02:22:50;;;;;;;4.88;3.55;;;;;;;17.10;82.10;94469.44;5092667;28;20232;-77
2022/06/25 02:25:17;;;;;;;6.00;3.92;;;;;;;17.15;82.09;94460.09;5091835;28;20227;-77
2022/06/25 02:27:44;;;;;;;5.95;4.07;;;;;;;17.32;81.64;94465.00;5091818;28;20218;-77
2022/06/25 02:30:13;;;;;;;7.38;3.90;;;;;;;17.40;81.27;94459.22;5092116;28;20232;-75
2022/06/25 02:32:39;;;;;;;6.20;4.13;;;;;;;17.48;81.30;94462.06;5092606;28;20214;-75
2022/06/25 02:35:07;;;;;;;4.95;3.65;;;;;;;17.49;80.87;94464.41;5092630;28;20202;-75
2022/06/25 02:37:35;;;;;;;5.18;3.50;;;;;;;17.34;81.62;94468.16;5092467;28;20202;-75
2022/06/25 02:40:03;;;;;;;5.82;4.13;;;;;;;17.24;81.53;94477.03;5091635;28;20241;-75
2022/06/25 02:42:33;;;;;;;5.97;3.75;;;;;;;17.14;82.04;94483.16;5091578;28;20313;-76
2022/06/25 02:45:00;;;;;;;9.88;4.22;;;;;;;17.04;82.73;94499.09;5092071;28;20226;-75
2022/06/25 02:47:28;;;;;;;4.80;3.70;;;;;;;16.94;83.37;94494.28;5091935;28;20271;-76
2022/06/25 02:49:56;;;;;;;5.15;3.50;;;;;;;17.05;82.78;94484.25;5091711;28;20222;-76
2022/06/25 02:52:23;;;;;;;4.80;3.53;;;;;;;17.37;82.33;94481.09;5091967;28;20722;-76
2022/06/25 02:54:50;;;;;;;12.50;3.92;;;;;;;17.47;82.04;94482.38;5092223;28;20562;-76
2022/06/25 03:00:01;;;;;;;6.32;3.70;;;;;;;17.55;82.19;94479.34;5091821;28;20570;-76
2022/06/25 03:02:29;;;;;;;4.93;3.45;;;;;;;17.57;81.89;94474.28;5092062;28;20285;-76
2022/06/25 03:04:56;;;;;;;5.97;4.18;;;;;;;17.73;81.50;94474.88;5091715;28;20259;-76
2022/06/25 03:07:23;;;;;;;6.43;4.03;;;;;;;17.84;81.01;94463.22;5091784;28;20214;-76
2022/06/25 03:09:50;;;;;;;5.70;4.82;;;;;;;17.99;79.91;94465.72;5091885;28;20255;-78
2022/06/25 03:12:16;;;;;;;7.18;4.38;;;;;;;18.23;79.33;94475.31;5091310;28;20805;-76
2022/06/25 03:14:44;;;;;;;6.03;4.13;;;;;;;18.52;77.38;94470.81;5090936;28;20317;-76
2022/06/25 03:17:10;;;;;;;6.78;4.25;;;;;;;18.57;77.11;94477.91;5091747;28;20634;-76
2022/06/25 03:19:38;;;;;;;7.35;4.63;;;;;;;18.79;76.56;94469.44;5091146;28;20711;-76
2022/06/25 03:22:05;;;;;;;9.05;4.78;;;;;;;19.37;74.62;94454.03;5091728;28;20247;-76
2022/06/25 03:24:32;;;;;;;5.32;4.00;;;;;;;19.97;72.81;94467.91;5091409;28;20242;-76
2022/06/25 03:26:59;;;;;;;6.05;5.00;;;;;;;19.72;72.40;94470.63;5091559;28;20283;-76
2022/06/25 03:29:26;;;;;;;6.68;4.63;;;;;;;19.49;73.66;94475.66;5091456;28;20198;-76
2022/06/25 03:31:53;;;;;;;4.57;3.67;;;;;;;19.64;73.50;94471.78;5091201;28;20194;-77
2022/06/25 03:34:20;;;;;;;6.60;4.22;;;;;;;19.71;73.21;94466.28;5091194;28;20259;-77
2022/06/25 03:36:48;;;;;;;6.72;4.70;;;;;;;19.76;72.78;94471.44;5091223;28;20602;-76
2022/06/25 03:39:15;;;;;;;7.55;4.30;;;;;;;20.30;72.16;94450.25;5091355;28;20209;-79
2022/06/25 03:41:42;;;;;;;7.57;5.30;;;;;;;20.52;70.89;94457.31;5091095;28;20259;-78
2022/06/25 03:44:11;;;;;;;6.85;5.00;;;;;;;20.72;70.33;94454.16;5091156;28;20303;-78
2022/06/25 03:46:39;;;;;;;6.80;5.05;;;;;;;20.82;71.09;94448.63;5091622;28;20308;-78
2022/06/25 03:49:07;;;;;;;5.78;5.13;;;;;;;20.84;71.96;94445.47;5091349;28;20202;-78
2022/06/25 03:51:34;;;;;;;6.65;5.55;;;;;;;20.99;70.76;94452.53;5091225;28;20218;-78
2022/06/25 03:54:03;;;;;;;6.53;5.57;;;;;;;21.37;68.49;94445.31;5091531;28;20222;-79
2022/06/25 03:56:30;;;;;;;9.95;5.10;;;;;;;21.06;69.12;94452.47;5090909;28;20218;-76
2022/06/25 03:58:57;;;;;;;6.32;5.35;;;;;;;20.45;71.46;94462.06;5091287;28;20275;-76
2022/06/25 04:01:24;;;;;;;6.65;5.22;;;;;;;20.30;71.70;94458.50;5090934;28;20260;-77
2022/06/25 04:03:50;;;;;;;5.63;4.45;;;;;;;20.47;72.16;94445.94;5090763;28;20257;-76
2022/06/25 04:06:17;;;;;;;6.75;5.65;;;;;;;20.13;73.15;94446.31;5091041;28;20282;-76
2022/06/25 04:08:44;;;;;;;5.32;4.20;;;;;;;19.94;74.26;94445.94;5091104;28;20202;-77
2022/06/25 04:11:12;;;;;;;5.05;4.10;;;;;;;20.02;74.42;94447.50;5091329;28;20218;-76
2022/06/25 04:13:39;;;;;;;7.38;4.75;;;;;;;19.96;73.98;94451.78;5090649;28;20222;-76
2022/06/25 04:16:06;;;;;;;8.77;5.28;;;;;;;19.93;74.51;94471.84;5089800;28;20639;-76
2022/06/25 04:18:33;;;;;;;8.57;5.53;;;;;;;19.23;76.21;94470.44;5090727;28;20218;-77
2022/06/25 04:21:00;;;;;;;7.30;4.60;;;;;;;18.81;78.25;94472.59;5090671;28;20323;-78
2022/06/25 04:23:27;;;;;;;5.53;4.45;;;;;;;18.91;78.22;94465.59;5090873;28;20226;-76
2022/06/25 04:25:54;;;;;;;7.18;5.13;;;;;;;19.17;76.33;94451.59;5090218;28;20289;-76
2022/06/25 04:31:06;;;;;;;9.20;6.13;;;;;;;18.51;80.29;94479.44;5090330;28;20189;-77
2022/06/25 04:33:33;;;;;;;10.90;5.85;;;;;;;18.46;80.06;94484.09;5090736;28;20210;-78
2022/06/25 04:36:00;;;;;;;9.98;5.50;;;;;;;18.70;79.01;94484.69;5090665;28;20284;-79
2022/06/25 04:38:27;;;;;;;8.48;5.07;;;;;;;18.90;78.50;94469.50;5090835;28;20218;-78
2022/06/25 04:40:54;;;;;;;7.18;6.07;;;;;;;19.05;77.41;94471.16;5090217;28;20205;-79
2022/06/25 04:43:23;;;;;;;5.45;4.95;;;;;;;19.39;75.91;94474.44;5089913;28;20222;-77
2022/06/25 04:45:50;;;;;;;10.05;5.20;;;;;;;19.37;74.91;94482.28;5090587;28;20230;-77
2022/06/25 04:48:17;;;;;;;7.43;6.05;;;;;;;19.20;75.87;94491.22;5090660;28;20206;-75
2022/06/25 04:50:44;;;;;;;9.30;6.03;;;;;;;19.03;76.78;94491.91;5090031;28;20214;-77
2022/06/25 04:53:11;;;;;;;7.22;5.00;;;;;;;19.48;75.84;94487.81;5093732;28;20256;-79
2022/06/25 04:55:38;;;;;;;7.13;4.43;;;;;;;20.10;74.21;94490.31;5094510;28;20270;-76
2022/06/25 04:58:05;;;;;;;7.82;5.32;;;;;;;20.45;71.63;94478.56;5094325;28;20202;-79
2022/06/25 05:00:34;;;;;;;8.07;5.93;;;;;;;20.86;70.38;94476.16;5094142;28;20218;-79
2022/06/25 05:03:00;;;;;;;7.50;5.60;;;;;;;22.16;67.70;94479.53;5094256;28;20700;-79
2022/06/25 05:05:27;;;;;;;5.38;4.43;;;;;;;23.40;63.06;94478.38;5094087;28;20359;-79
2022/06/25 05:07:54;;;;;;;7.65;5.80;;;;;;;24.93;58.28;94476.19;5094310;28;20272;-77
2022/06/25 05:10:21;;;;;;;7.72;6.00;;;;;;;24.55;56.97;94483.94;5094195;28;20217;-77
2022/06/25 05:15:35;;;;;;;8.93;6.03;;;;;;;24.85;56.98;94474.75;5093623;28;20757;-78
2022/06/25 05:18:02;;;;;;;7.70;5.72;;;;;;;26.38;53.92;94471.66;5093692;28;20229;-79
2022/06/25 05:20:28;;;;;;;6.95;5.97;;;;;;;27.91;49.04;94463.63;5094015;28;20252;-79
2022/06/25 05:22:55;;;;;;;6.50;5.80;;;;;;;28.77;46.91;94464.53;5093538;28;20218;-79
2022/06/25 05:25:22;;;;;;;6.55;5.85;;;;;;;28.48;46.72;94458.31;5093371;28;20712;-79
2022/06/25 05:27:49;;;;;;;7.78;5.55;;;;;;;27.49;49.62;94462.81;5093673;28;20251;-79
2022/06/25 05:30:16;;;;;;;9.52;6.65;;;;;;;26.37;51.15;94476.44;5093474;28;20707;-79
2022/06/25 05:32:44;;;;;;;8.68;6.85;;;;;;;26.48;51.44;94481.75;5093586;28;20270;-80
2022/06/25 05:35:11;;;;;;;9.52;6.45;;;;;;;27.19;48.82;94479.97;5093347;28;20280;-80
2022/06/25 05:37:37;;;;;;;9.27;6.45;;;;;;;26.79;50.31;94482.94;5093794;28;20272;-79
2022/06/25 05:40:05;;;;;;;8.32;6.10;;;;;;;27.58;49.22;94471.38;5093547;28;20267;-79
2022/06/25 05:42:33;;;;;;;8.55;6.47;;;;;;;26.75;51.34;94487.03;5093438;28;20271;-79
2022/06/25 05:45:00;;;;;;;8.77;6.80;;;;;;;26.01;52.40;94484.75;5093331;28;20261;-78
2022/06/25 05:47:27;;;;;;;10.40;7.30;;;;;;;25.73;54.10;94482.59;5092900;28;20598;-79
2022/06/25 05:49:55;;;;;;;11.20;7.50;;;;;;;26.86;50.86;94485.56;5092896;28;20225;-78
2022/06/25 05:52:22;;;;;;;8.35;7.35;;;;;;;26.74;51.29;94489.03;5092656;28;20802;-78
2022/06/25 05:54:50;;;;;;;10.13;7.40;;;;;;;27.06;50.66;94498.59;5093447;28;20313;-79
2022/06/25 05:57:17;;;;;;;9.27;7.47;;;;;;;27.47;49.43;94481.97;5093379;28;20252;-79
2022/06/25 05:59:43;;;;;;;8.77;6.93;;;;;;;29.84;45.10;94474.78;5093248;28;20222;-79
2022/06/25 06:02:10;;;;;;;9.55;6.97;;;;;;;30.52;42.19;94475.78;5093260;28;20275;-80
2022/06/25 06:04:37;;;;;;;7.97;7.10;;;;;;;31.84;39.74;94471.06;5092103;28;20684;-78
2022/06/25 06:07:06;;;;;;;9.57;6.88;;;;;;;30.53;41.32;94480.13;5092849;28;20222;-80
2022/06/25 06:09:32;;;;;;;7.55;6.68;;;;;;;31.55;40.08;94472.28;5093068;28;20287;-80
2022/06/25 06:12:00;;;;;;;7.18;6.32;;;;;;;31.72;40.04;94467.16;5093035;28;20566;-81
2022/06/25 06:14:27;;;;;;;8.35;5.95;;;;;;;31.45;39.65;94470.72;5092680;28;20198;-81
2022/06/25 06:16:56;;;;;;;7.05;6.35;;;;;;;32.47;37.69;94481.34;5092167;28;20280;-80
2022/06/25 06:19:23;;;;;;;9.00;6.45;;;;;;;33.01;36.47;94480.31;5092798;28;20202;-80
2022/06/25 06:21:50;;;;;;;8.77;6.30;;;;;;;33.35;36.32;94478.28;5092586;28;20323;-81
2022/06/25 06:24:18;;;;;;;8.30;6.63;;;;;;;34.00;34.96;94470.84;5091731;28;20234;-79
2022/06/25 06:26:45;;;;;;;9.57;6.93;;;;;;;33.11;35.76;94473.38;5092321;28;20190;-80
2022/06/25 06:29:12;;;;;;;8.07;6.65;;;;;;;32.80;36.22;94481.38;5092264;28;20206;-80
2022/06/25 06:31:39;;;;;;;10.55;6.78;;;;;;;32.64;37.15;94468.50;5092660;28;20267;-81
2022/06/25 06:34:05;;;;;;;7.78;6.13;;;;;;;33.58;34.91;94471.84;5092588;28;20226;-81
2022/06/25 06:36:32;;;;;;;7.95;5.75;;;;;;;33.29;35.96;94472.53;5092652;28;20642;-80
2022/06/25 06:38:59;;;;;;;7.97;6.25;;;;;;;31.97;37.41;94478.03;5092195;28;20225;-80
2022/06/25 06:41:27;;;;;;;9.48;5.90;;;;;;;32.34;36.96;94484.34;5091617;28;20275;-81
2022/06/25 06:43:54;;;;;;;8.70;5.32;;;;;;;32.24;37.13;94480.03;5092181;28;20225;-82
2022/06/25 06:46:21;;;;;;;6.95;5.05;;;;;;;32.12;37.43;94472.53;5092368;28;20279;-82
2022/06/25 06:48:48;;;;;;;8.55;5.72;;;;;;;32.38;36.54;94468.13;5092200;28;20317;-81
2022/06/25 06:51:15;;;;;;;5.88;4.80;;;;;;;33.27;36.29;94469.41;5091861;28;20261;-79
2022/06/25 06:53:41;;;;;;;6.80;5.22;;;;;;;31.95;37.04;94485.34;5092016;28;20278;-80
2022/06/25 06:56:08;;;;;;;8.82;4.97;;;;;;;32.52;36.07;94482.75;5092253;28;20203;-82
2022/06/25 06:58:37;;;;;;;7.85;4.90;;;;;;;32.60;34.86;94476.31;5092221;28;20255;-82
2022/06/25 07:01:04;;;;;;;6.40;4.25;;;;;;;33.98;34.34;94468.53;5092212;28;20279;-81
2022/06/25 07:03:31;;;;;;;5.18;4.32;;;;;;;34.35;32.86;94462.53;5092185;28;20202;-80
2022/06/25 07:05:58;;;;;;;5.88;3.97;;;;;;;34.92;32.91;94474.19;5091582;28;20643;-81
2022/06/25 07:08:25;;;;;;;5.45;4.03;;;;;;;32.24;36.40;94480.03;5091745;28;20684;-79
2022/06/25 07:10:53;;;;;;;6.68;5.13;;;;;;;33.64;34.28;94469.91;5091901;28;20222;-82
2022/06/25 07:13:20;;;;;;;4.97;4.40;;;;;;;33.24;33.94;94475.19;5091847;28;20200;-81
2022/06/25 07:15:48;;;;;;;5.97;4.30;;;;;;;33.59;34.09;94467.00;5090958;28;20198;-81
2022/06/25 07:18:15;;;;;;;6.50;4.43;;;;;;;31.23;36.31;94476.47;5091387;28;20266;-79
2022/06/25 07:20:42;;;;;;;6.38;4.85;;;;;;;32.22;35.84;94471.31;5091191;28;20279;-79
2022/06/25 07:23:10;;;;;;;5.20;4.20;;;;;;;33.00;35.32;94467.53;5091475;28;20198;-82
2022/06/25 07:25:36;;;;;;;7.00;4.40;;;;;;;33.95;34.20;94465.91;5091126;28;20242;-81
2022/06/25 07:28:03;;;;;;;6.00;4.47;;;;;;;34.44;33.04;94457.56;5091704;28;20255;-80
2022/06/25 07:30:30;;;;;;;6.90;5.30;;;;;;;31.84;36.82;94462.66;5091478;28;20615;-77
2022/06/25 07:32:58;;;;;;;5.97;4.50;;;;;;;31.12;39.08;94486.56;5091616;28;20229;-81
2022/06/25 07:35:25;;;;;;;8.55;4.18;;;;;;;31.33;38.64;94480.06;5091629;28;20287;-81
2022/06/25 07:37:52;;;;;;;6.65;4.60;;;;;;;31.74;37.96;94476.66;5091408;28;20226;-81
2022/06/25 07:40:21;;;;;;;4.82;4.22;;;;;;;33.28;36.83;94475.81;5091337;28;20222;-78
2022/06/25 07:42:48;;;;;;;5.78;4.55;;;;;;;32.82;36.39;94473.25;5091166;28;20209;-80
2022/06/25 07:45:15;;;;;;;7.53;5.07;;;;;;;33.01;36.26;94473.94;5091215;28;20229;-80
2022/06/25 07:47:42;;;;;;;7.03;4.70;;;;;;;33.87;36.36;94477.53;5091389;28;20218;-81
2022/06/25 07:52:51;;;;;;;6.60;5.20;;;;;;;33.89;34.79;94475.00;5057239;28;20577;-80
2022/06/25 07:55:18;;;;;;;6.05;5.25;;;;;;;33.97;33.98;94469.00;5091364;28;20226;-81
2022/06/25 07:57:45;;;;;;;6.60;5.32;;;;;;;32.03;36.81;94475.38;5090992;28;20710;-81
2022/06/25 08:00:13;;;;;;;6.70;4.82;;;;;;;31.43;38.15;94482.38;5091184;28;20222;-78
2022/06/25 08:02:40;;;;;;;6.75;4.90;;;;;;;31.64;37.25;94489.13;5090987;28;20618;-80
2022/06/25 08:05:07;;;;;;;11.00;5.97;;;;;;;31.87;37.50;94478.50;5090720;28;20265;-80
2022/06/25 08:07:35;;;;;;;7.40;5.47;;;;;;;32.30;37.97;94480.94;5091291;28;20218;-81
2022/06/25 08:10:02;;;;;;;9.45;5.25;;;;;;;31.54;37.91;94484.75;5091049;28;20723;-79
2022/06/25 08:12:29;;;;;;;6.40;4.80;;;;;;;31.71;38.38;94482.41;5091078;28;20218;-81
2022/06/25 08:14:56;;;;;;;6.40;5.25;;;;;;;30.30;40.48;94482.22;5090707;28;20205;-78
2022/06/25 08:17:22;;;;;;;6.80;5.38;;;;;;;30.20;40.71;94486.22;5090608;28;20271;-79
2022/06/25 08:19:49;;;;;;;7.03;5.10;;;;;;;31.31;39.18;94479.75;5091352;28;20255;-81
2022/06/25 08:22:16;;;;;;;9.18;5.57;;;;;;;30.72;40.10;94488.16;5090475;28;20260;-79
2022/06/25 08:24:44;;;;;;;6.88;5.20;;;;;;;29.79;42.68;94478.19;5090328;28;20634;-78
2022/06/25 08:27:11;;;;;;;9.23;5.35;;;;;;;30.36;40.59;94474.00;5092217;28;20263;-81
2022/06/25 08:29:38;;;;;;;6.28;4.88;;;;;;;31.08;40.58;94481.88;5095013;28;20222;-79
2022/06/25 08:32:06;;;;;;;7.97;5.03;;;;;;;31.40;38.93;94474.16;5094869;28;20214;-80
2022/06/25 08:34:32;;;;;;;6.95;5.60;;;;;;;31.16;39.52;94476.00;5094719;28;20198;-78
2022/06/25 08:36:59;;;;;;;8.15;5.75;;;;;;;30.33;40.62;94467.34;5094768;28;20222;-78
2022/06/25 08:39:26;;;;;;;8.60;5.57;;;;;;;31.06;40.48;94467.56;5094215;28;20230;-81
2022/06/25 08:41:55;;;;;;;8.25;5.78;;;;;;;30.58;40.95;94471.19;5094733;28;20259;-81
2022/06/25 08:44:21;;;;;;;9.25;5.93;;;;;;;31.06;39.46;94472.38;5094461;28;20224;-80
2022/06/25 08:46:49;;;;;;;6.88;5.43;;;;;;;31.59;39.73;94475.69;5094553;28;20233;-79
2022/06/25 08:49:19;;;;;;;9.07;5.97;;;;;;;31.32;39.65;94479.28;5094269;28;20271;-80
2022/06/25 08:51:46;;;;;;;7.00;5.30;;;;;;;31.04;40.21;94478.44;5093853;28;20210;-80
2022/06/25 08:54:16;;;;;;;9.20;6.30;;;;;;;30.37;41.22;94479.13;5093586;28;20218;-80
2022/06/25 08:56:43;;;;;;;6.82;5.72;;;;;;;30.63;41.67;94485.31;5093950;28;20202;-80
2022/06/25 08:59:12;;;;;;;14.90;5.97;;;;;;;29.81;43.48;94486.88;5093819;28;20283;-80
2022/06/25 09:01:39;;;;;;;6.68;5.32;;;;;;;30.37;41.80;94479.13;5094045;28;20221;-80
2022/06/25 09:04:06;;;;;;;7.78;6.13;;;;;;;30.34;42.32;94471.66;5094043;28;20706;-79
2022/06/25 09:06:32;;;;;;;10.07;6.18;;;;;;;30.19;42.25;94483.88;5094262;28;20230;-80
2022/06/25 09:09:11;;;;;;;11.32;6.40;;;;;;;30.21;43.43;94473.00;5094221;28;20222;-80
2022/06/25 09:11:53;;;;;;;7.93;6.28;;;;;;;30.21;42.38;94487.75;5094087;28;20222;-79
2022/06/25 09:14:25;;;;;;;9.40;6.35;;;;;;;29.73;43.39;94485.56;5094183;28;20206;-79
2022/06/25 09:16:57;;;;;;;14.70;6.55;;;;;;;29.60;44.76;94489.22;5094101;28;20218;-80
2022/06/25 09:19:32;;;;;;;12.32;6.38;;;;;;;29.75;44.04;94505.47;5094251;28;20285;-79
2022/06/25 09:22:00;;;;;;;8.80;6.35;;;;;;;29.20;44.71;94493.81;5094208;28;20205;-76
2022/06/25 09:24:40;;;;;;;12.55;6.80;;;;;;;29.98;42.17;94488.25;5093284;28;20715;-80
2022/06/25 09:27:08;;;;;;;12.57;6.72;;;;;;;30.55;42.25;94477.69;5093401;28;20283;-80
2022/06/25 09:29:40;;;;;;;8.18;6.20;;;;;;;31.39;42.63;94495.00;5093451;28;20222;-81
2022/06/25 09:32:08;;;;;;;8.95;6.05;;;;;;;32.03;39.46;94475.38;5093854;28;20226;-80
2022/06/25 09:34:36;;;;;;;10.18;6.72;;;;;;;32.09;39.59;94473.50;5093597;28;20294;-80
2022/06/25 09:37:23;;;;;;;11.70;6.43;;;;;;;32.08;41.55;94477.53;5093620;28;20295;-80
2022/06/25 09:39:52;;;;;;;8.10;6.38;;;;;;;32.09;40.50;94474.28;5092530;28;20605;-79
2022/06/25 09:42:27;;;;;;;10.95;6.75;;;;;;;32.24;39.72;94468.81;5093493;28;20268;-79
2022/06/25 09:45:08;;;;;;;12.02;6.72;;;;;;;31.45;39.79;94476.31;5093200;28;20603;-76
2022/06/25 09:47:37;;;;;;;9.82;5.88;;;;;;;31.20;40.21;94479.41;5093180;28;20340;-75
2022/06/25 09:50:14;;;;;;;9.07;6.03;;;;;;;31.65;40.14;94465.47;5093230;28;20883;-77
2022/06/25 09:52:52;;;;;;;10.73;6.78;;;;;;;30.29;43.91;94455.50;5093334;28;20222;-78
2022/06/25 09:55:19;;;;;;;10.18;5.90;;;;;;;29.72;43.72;94467.25;5092774;28;20679;-77
2022/06/25 09:57:47;;;;;;;9.32;6.57;;;;;;;29.23;44.14;94471.38;5092240;28;20574;-72
2022/06/25 10:00:16;;;;;;;9.70;6.35;;;;;;;28.96;45.10;94474.69;5093088;28;20214;-77
2022/06/25 10:02:43;;;;;;;12.40;6.38;;;;;;;29.54;44.62;94463.09;5092815;28;20275;-79
2022/06/25 10:05:12;;;;;;;8.85;5.60;;;;;;;30.33;44.46;94460.97;5092667;28;20259;-78
2022/06/25 10:10:24;;;;;;;12.05;6.20;;;;;;;29.53;42.88;94455.94;5092392;28;20811;-79
2022/06/25 10:12:51;;;;;;;7.30;5.30;;;;;;;29.65;43.82;94463.50;5092327;28;20198;-75
2022/06/25 10:15:23;;;;;;;7.97;4.47;;;;;;;28.87;42.42;94469.00;5092638;28;20226;-74
2022/06/25 10:17:52;;;;;;;8.75;5.05;;;;;;;29.05;42.38;94470.41;5092873;28;20193;-79
2022/06/25 10:20:19;;;;;;;9.98;5.93;;;;;;;29.58;44.84;94462.97;5092789;28;20232;-79
2022/06/25 10:22:48;;;;;;;8.48;4.88;;;;;;;29.87;41.34;94457.13;5092621;28;20447;-79
2022/06/25 10:25:18;;;;;;;6.78;4.60;;;;;;;30.46;40.10;94450.44;5091415;28;20230;-79
2022/06/25 10:27:46;;;;;;;17.08;4.63;;;;;;;29.57;42.26;94451.03;5091431;28;20781;-79
2022/06/25 10:30:16;;;;;;;11.00;5.40;;;;;;;29.63;42.51;94438.06;5091339;28;20712;-79
2022/06/25 10:32:47;;;;;;;9.18;5.53;;;;;;;30.05;42.56;94432.13;5092626;28;20226;-78
2022/06/25 10:35:28;;;;;;;8.40;4.95;;;;;;;29.61;42.52;94429.34;5092569;28;20222;-76
2022/06/25 10:38:04;;;;;;;8.10;5.53;;;;;;;29.52;42.89;94437.63;5092591;28;20308;-75
2022/06/25 10:40:33;;;;;;;7.82;5.22;;;;;;;29.49;41.66;94435.78;5092016;28;20232;-75
2022/06/25 10:43:03;;;;;;;8.63;5.75;;;;;;;29.79;42.48;94427.91;5091631;28;20234;-76
2022/06/25 10:45:46;;;;;;;8.57;4.63;;;;;;;29.83;42.55;94425.75;5092106;28;20228;-80
2022/06/25 10:48:15;;;;;;;11.32;5.53;;;;;;;29.47;43.44;94427.06;5092154;28;20194;-78
2022/06/25 10:50:48;;;;;;;8.95;5.28;;;;;;;29.89;43.35;94415.53;5091807;28;20214;-78
2022/06/25 10:53:20;;;;;;;11.05;5.60;;;;;;;30.00;42.65;94418.72;5091794;28;20217;-79
2022/06/25 10:56:14;;;;;;;9.10;5.18;;;;;;;29.97;40.50;94420.41;5091822;28;20232;-77
2022/06/25 10:58:47;;;;;;;7.97;5.53;;;;;;;29.87;41.80;94415.22;5091744;28;20337;-75
2022/06/25 11:01:33;;;;;;;10.52;5.65;;;;;;;30.17;41.93;94424.88;5091885;28;20284;-78
2022/06/25 11:04:04;;;;;;;8.57;5.70;;;;;;;30.33;41.67;94421.81;5091896;28;20190;-80
2022/06/25 11:06:35;;;;;;;9.45;5.55;;;;;;;30.28;40.70;94420.41;5091616;28;20685;-79
2022/06/25 11:09:11;;;;;;;10.00;5.28;;;;;;;30.88;41.62;94408.00;5091700;28;20351;-79
2022/06/25 11:11:39;;;;;;;8.27;5.45;;;;;;;31.18;40.79;94411.91;5091772;28;20182;-79
2022/06/25 11:14:15;;;;;;;8.55;4.80;;;;;;;30.20;41.78;94410.75;5091855;28;20226;-73
2022/06/25 11:16:43;;;;;;;10.98;5.32;;;;;;;30.35;41.33;94408.16;5091787;28;20182;-79
2022/06/25 11:19:11;;;;;;;10.88;5.43;;;;;;;30.32;41.25;94397.91;5092093;28;20485;-77
2022/06/25 11:21:39;;;;;;;10.85;5.40;;;;;;;30.54;41.90;94397.84;5092316;28;20198;-78
2022/06/25 11:24:15;;;;;;;10.38;5.53;;;;;;;30.24;41.60;94403.00;5092264;28;20203;-80
2022/06/25 11:29:29;;;;;;;10.25;5.30;;;;;;;30.34;41.89;94393.38;5091272;28;20194;-75
2022/06/25 11:31:57;;;;;;;9.40;5.18;;;;;;;30.81;42.13;94377.53;5091410;28;20230;-79
2022/06/25 11:34:28;;;;;;;11.25;5.40;;;;;;;29.95;42.50;94380.16;5091004;28;20716;-76
2022/06/25 11:36:57;;;;;;;9.07;5.00;;;;;;;30.40;39.95;94374.78;5091133;28;20186;-78
2022/06/25 11:39:24;;;;;;;7.68;4.68;;;;;;;31.33;39.95;94368.06;5091236;28;20771;-79
2022/06/25 11:41:51;;;;;;;16.13;5.65;;;;;;;31.07;41.63;94362.75;5091151;28;20697;-80
2022/06/25 11:44:19;;;;;;;15.55;5.70;;;;;;;31.05;40.03;94365.25;5091088;28;20232;-78
2022/06/25 11:46:47;;;;;;;14.48;5.93;;;;;;;31.45;40.55;94362.28;5091037;28;20781;-78
2022/06/25 11:49:14;;;;;;;8.95;5.50;;;;;;;31.76;42.10;94358.50;5091205;28;20218;-79
2022/06/25 11:51:46;;;;;;;8.45;5.35;;;;;;;32.04;40.35;94362.00;5091602;28;20198;-79
2022/06/25 11:54:16;;;;;;;11.77;5.45;;;;;;;32.62;38.93;94352.38;5090963;28;20577;-80
2022/06/25 11:56:55;;;;;;;10.15;5.18;;;;;;;32.05;39.41;94355.16;5090602;28;20246;-76
2022/06/25 11:59:30;;;;;;;14.65;5.65;;;;;;;33.11;38.63;94355.47;5090288;28;20198;-79